JKK99A GCLP-LEZL
Flight info
| Callsign | JKK99A |
|---|---|
| Flight time | 1h 52m |
| Altitude | 36000 |
| Route | KORAL UG5 SONSO DCT NIRAL UN871 ADUBI DCT VJF |
| Aircraft | A321/M-SDE3FGHIRWY/LB1 |
Departure
| Time | 2026-04-23 22:07 |
|---|---|
| Airport | Gran Canaria Airport (GCLP) |
Arrival
| Time | 2026-04-23 23:59 |
|---|---|
| Airport | Seville Airport (LEZL) |
| Time | Latitude | Longitude | Altitude | Speed | Heading |
|---|---|---|---|---|---|
| 2026-04-23 21:28 | 27.93939 | -15.38774 | 85 ft | 0 kts | 290° |
| 2026-04-23 21:54 | 27.93939 | -15.38773 | 85 ft | 1 kts | 290° |
| 2026-04-23 21:54 | 27.93930 | -15.38749 | 88 ft | 4 kts | 297° |
| 2026-04-23 21:54 | 27.93920 | -15.38726 | 89 ft | 4 kts | 282° |
| 2026-04-23 21:55 | 27.93923 | -15.38699 | 89 ft | 4 kts | 233° |
| 2026-04-23 21:55 | 27.93940 | -15.38683 | 88 ft | 1 kts | 201° |
| 2026-04-23 21:55 | 27.93941 | -15.38683 | 88 ft | 0 kts | 201° |
| 2026-04-23 21:59 | 27.93940 | -15.38683 | 88 ft | 1 kts | 201° |
| 2026-04-23 21:59 | 27.93920 | -15.38691 | 88 ft | 6 kts | 201° |
| 2026-04-23 21:59 | 27.93867 | -15.38715 | 85 ft | 9 kts | 201° |
| 2026-04-23 22:00 | 27.93731 | -15.38776 | 86 ft | 12 kts | 201° |
| 2026-04-23 22:00 | 27.93652 | -15.38811 | 84 ft | 13 kts | 201° |
| 2026-04-23 22:00 | 27.93568 | -15.38849 | 85 ft | 13 kts | 201° |
| 2026-04-23 22:00 | 27.93474 | -15.38884 | 86 ft | 15 kts | 198° |
| 2026-04-23 22:01 | 27.93371 | -15.38925 | 82 ft | 16 kts | 202° |
| 2026-04-23 22:01 | 27.93263 | -15.38975 | 83 ft | 17 kts | 200° |
| 2026-04-23 22:01 | 27.93148 | -15.39025 | 85 ft | 18 kts | 202° |
| 2026-04-23 22:01 | 27.93030 | -15.39078 | 86 ft | 19 kts | 201° |
| 2026-04-23 22:02 | 27.92925 | -15.39123 | 89 ft | 13 kts | 200° |
| 2026-04-23 22:02 | 27.92868 | -15.39088 | 85 ft | 11 kts | 118° |
| 2026-04-23 22:02 | 27.92813 | -15.39031 | 87 ft | 12 kts | 175° |
| 2026-04-23 22:02 | 27.92738 | -15.39058 | 90 ft | 11 kts | 201° |
| 2026-04-23 22:03 | 27.92671 | -15.39086 | 90 ft | 10 kts | 201° |
| 2026-04-23 22:03 | 27.92593 | -15.39121 | 94 ft | 14 kts | 201° |
| 2026-04-23 22:03 | 27.92492 | -15.39166 | 95 ft | 16 kts | 201° |
| 2026-04-23 22:03 | 27.92387 | -15.39211 | 98 ft | 16 kts | 201° |
| 2026-04-23 22:04 | 27.92292 | -15.39255 | 99 ft | 14 kts | 203° |
| 2026-04-23 22:04 | 27.92197 | -15.39296 | 100 ft | 16 kts | 200° |
| 2026-04-23 22:04 | 27.92084 | -15.39345 | 97 ft | 19 kts | 201° |
| 2026-04-23 22:04 | 27.91962 | -15.39398 | 94 ft | 14 kts | 202° |
| 2026-04-23 22:05 | 27.91886 | -15.39388 | 90 ft | 13 kts | 121° |
| 2026-04-23 22:05 | 27.91840 | -15.39281 | 89 ft | 17 kts | 112° |
| 2026-04-23 22:05 | 27.91794 | -15.39140 | 86 ft | 21 kts | 110° |
| 2026-04-23 22:05 | 27.91815 | -15.39035 | 72 ft | 14 kts | 26° |
| 2026-04-23 22:06 | 27.91833 | -15.39027 | 74 ft | 0 kts | 21° |
| 2026-04-23 22:06 | 27.91834 | -15.39026 | 74 ft | 0 kts | 21° |
| 2026-04-23 22:06 | 27.91839 | -15.39024 | 70 ft | 3 kts | 20° |
| 2026-04-23 22:07 | 27.91972 | -15.38967 | 70 ft | 53 kts | 21° |
| 2026-04-23 22:07 | 27.92541 | -15.38719 | 54 ft | 120 kts | 20° |
| 2026-04-23 22:07 | 27.93479 | -15.38307 | 174 ft | 157 kts | 22° |
| 2026-04-23 22:07 | 27.94449 | -15.37819 | 917 ft | 151 kts | 23° |
| 2026-04-23 22:08 | 27.95434 | -15.37359 | 1460 ft | 157 kts | 18° |
| 2026-04-23 22:08 | 27.96500 | -15.36917 | 1833 ft | 169 kts | 18° |
| 2026-04-23 22:08 | 27.97672 | -15.36458 | 2100 ft | 187 kts | 17° |
| 2026-04-23 22:08 | 27.98937 | -15.35961 | 2389 ft | 202 kts | 17° |
| 2026-04-23 22:09 | 28.00328 | -15.35413 | 2599 ft | 221 kts | 18° |
| 2026-04-23 22:09 | 28.01831 | -15.34814 | 2868 ft | 240 kts | 18° |
| 2026-04-23 22:09 | 28.03409 | -15.34064 | 3368 ft | 250 kts | 29° |
| 2026-04-23 22:09 | 28.04671 | -15.32691 | 3986 ft | 257 kts | 51° |
| 2026-04-23 22:10 | 28.05708 | -15.31007 | 4566 ft | 262 kts | 52° |
| 2026-04-23 22:10 | 28.06756 | -15.29305 | 5212 ft | 264 kts | 51° |
| 2026-04-23 22:10 | 28.07822 | -15.27588 | 5755 ft | 269 kts | 51° |
| 2026-04-23 22:10 | 28.08906 | -15.25845 | 6312 ft | 272 kts | 52° |
| 2026-04-23 22:11 | 28.09632 | -15.24683 | 6677 ft | 274 kts | 51° |
| 2026-04-23 22:11 | 28.10744 | -15.22915 | 7169 ft | 277 kts | 51° |
| 2026-04-23 22:11 | 28.11872 | -15.21130 | 7681 ft | 281 kts | 51° |
| 2026-04-23 22:11 | 28.13019 | -15.19320 | 8150 ft | 285 kts | 51° |
| 2026-04-23 22:12 | 28.14185 | -15.17476 | 8636 ft | 290 kts | 51° |
| 2026-04-23 22:12 | 28.15367 | -15.15607 | 9105 ft | 294 kts | 52° |
| 2026-04-23 22:12 | 28.16568 | -15.13706 | 9577 ft | 299 kts | 52° |
| 2026-04-23 22:12 | 28.17783 | -15.11781 | 10057 ft | 302 kts | 52° |
| 2026-04-23 22:13 | 28.19023 | -15.09811 | 10305 ft | 314 kts | 52° |
| 2026-04-23 22:13 | 28.20324 | -15.07744 | 10426 ft | 329 kts | 52° |
| 2026-04-23 22:13 | 28.21681 | -15.05591 | 10550 ft | 342 kts | 52° |
| 2026-04-23 22:13 | 28.23091 | -15.03353 | 10677 ft | 354 kts | 52° |
| 2026-04-23 22:14 | 28.24513 | -15.01091 | 10946 ft | 359 kts | 52° |
| 2026-04-23 22:14 | 28.25968 | -14.98773 | 11286 ft | 362 kts | 52° |
| 2026-04-23 22:14 | 28.27436 | -14.96435 | 11628 ft | 365 kts | 52° |
| 2026-04-23 22:14 | 28.28920 | -14.94075 | 11975 ft | 369 kts | 52° |
| 2026-04-23 22:15 | 28.30417 | -14.91693 | 12297 ft | 372 kts | 52° |
| 2026-04-23 22:15 | 28.31926 | -14.89291 | 12624 ft | 375 kts | 52° |
| 2026-04-23 22:15 | 28.33445 | -14.86867 | 12959 ft | 378 kts | 52° |
| 2026-04-23 22:15 | 28.34973 | -14.84421 | 13285 ft | 381 kts | 52° |
| 2026-04-23 22:16 | 28.36510 | -14.81959 | 13608 ft | 384 kts | 52° |
| 2026-04-23 22:16 | 28.38066 | -14.79471 | 13932 ft | 387 kts | 52° |
| 2026-04-23 22:16 | 28.39629 | -14.76974 | 14203 ft | 389 kts | 52° |
| 2026-04-23 22:16 | 28.41207 | -14.74460 | 14508 ft | 391 kts | 52° |
| 2026-04-23 22:17 | 28.42784 | -14.71940 | 14796 ft | 393 kts | 52° |
| 2026-04-23 22:17 | 28.44369 | -14.69402 | 15100 ft | 394 kts | 52° |
| 2026-04-23 22:17 | 28.45959 | -14.66853 | 15409 ft | 396 kts | 52° |
| 2026-04-23 22:17 | 28.47552 | -14.64298 | 15685 ft | 398 kts | 52° |
| 2026-04-23 22:18 | 28.49170 | -14.61706 | 15806 ft | 405 kts | 52° |
| 2026-04-23 22:18 | 28.50813 | -14.59074 | 15929 ft | 411 kts | 52° |
| 2026-04-23 22:18 | 28.52479 | -14.56402 | 16058 ft | 417 kts | 52° |
| 2026-04-23 22:18 | 28.54162 | -14.53697 | 16202 ft | 421 kts | 52° |
| 2026-04-23 22:19 | 28.55857 | -14.50962 | 16398 ft | 423 kts | 52° |
| 2026-04-23 22:19 | 28.57555 | -14.48215 | 16629 ft | 425 kts | 52° |
| 2026-04-23 22:19 | 28.59239 | -14.45496 | 16839 ft | 426 kts | 52° |
| 2026-04-23 22:19 | 28.60951 | -14.42736 | 17033 ft | 428 kts | 52° |
| 2026-04-23 22:20 | 28.62669 | -14.39969 | 17247 ft | 429 kts | 51° |
| 2026-04-23 22:20 | 28.64394 | -14.37192 | 17434 ft | 430 kts | 51° |
| 2026-04-23 22:20 | 28.66123 | -14.34408 | 17621 ft | 431 kts | 51° |
| 2026-04-23 22:20 | 28.67857 | -14.31610 | 17806 ft | 432 kts | 51° |
| 2026-04-23 22:21 | 28.69590 | -14.28808 | 17984 ft | 433 kts | 51° |
| 2026-04-23 22:21 | 28.71328 | -14.25993 | 18130 ft | 435 kts | 51° |
| 2026-04-23 22:21 | 28.73073 | -14.23164 | 18261 ft | 438 kts | 51° |
| 2026-04-23 22:21 | 28.74825 | -14.20318 | 18392 ft | 440 kts | 52° |
| 2026-04-23 22:22 | 28.76586 | -14.17457 | 18515 ft | 441 kts | 52° |
| 2026-04-23 22:22 | 28.78355 | -14.14585 | 18628 ft | 443 kts | 51° |
| 2026-04-23 22:22 | 28.80127 | -14.11709 | 18758 ft | 444 kts | 51° |
| 2026-04-23 22:22 | 28.81907 | -14.08820 | 18870 ft | 446 kts | 51° |
| 2026-04-23 22:23 | 28.83691 | -14.05922 | 18989 ft | 447 kts | 51° |
| 2026-04-23 22:23 | 28.85478 | -14.03015 | 19102 ft | 448 kts | 51° |
| 2026-04-23 22:23 | 28.87267 | -14.00104 | 19215 ft | 449 kts | 51° |
| 2026-04-23 22:23 | 28.89061 | -13.97183 | 19331 ft | 450 kts | 51° |
| 2026-04-23 22:24 | 28.90839 | -13.94287 | 19453 ft | 451 kts | 51° |
| 2026-04-23 22:24 | 28.92635 | -13.91354 | 19572 ft | 451 kts | 51° |
| 2026-04-23 22:24 | 28.94437 | -13.88410 | 19695 ft | 452 kts | 51° |
| 2026-04-23 22:24 | 28.96238 | -13.85466 | 19828 ft | 453 kts | 51° |
| 2026-04-23 22:25 | 28.98045 | -13.82514 | 19950 ft | 454 kts | 51° |
| 2026-04-23 22:25 | 28.99854 | -13.79556 | 20071 ft | 455 kts | 51° |
| 2026-04-23 22:25 | 29.01666 | -13.76588 | 20199 ft | 456 kts | 51° |
| 2026-04-23 22:25 | 29.03480 | -13.73615 | 20326 ft | 457 kts | 51° |
| 2026-04-23 22:26 | 29.05300 | -13.70627 | 20457 ft | 457 kts | 51° |
| 2026-04-23 22:26 | 29.07118 | -13.67643 | 20582 ft | 458 kts | 51° |
| 2026-04-23 22:26 | 29.08940 | -13.64657 | 20704 ft | 459 kts | 51° |
| 2026-04-23 22:26 | 29.10769 | -13.61658 | 20825 ft | 460 kts | 51° |
| 2026-04-23 22:27 | 29.12599 | -13.58650 | 20950 ft | 460 kts | 51° |
| 2026-04-23 22:27 | 29.14427 | -13.55639 | 21089 ft | 460 kts | 51° |
| 2026-04-23 22:27 | 29.16254 | -13.52634 | 21205 ft | 461 kts | 51° |
| 2026-04-23 22:27 | 29.18084 | -13.49615 | 21340 ft | 462 kts | 51° |
| 2026-04-23 22:28 | 29.19916 | -13.46587 | 21467 ft | 462 kts | 51° |
| 2026-04-23 22:28 | 29.21741 | -13.43564 | 21585 ft | 462 kts | 51° |
| 2026-04-23 22:28 | 29.23571 | -13.40537 | 21729 ft | 462 kts | 50° |
| 2026-04-23 22:28 | 29.25404 | -13.37509 | 21843 ft | 462 kts | 50° |
| 2026-04-23 22:29 | 29.27239 | -13.34481 | 21968 ft | 462 kts | 50° |
| 2026-04-23 22:29 | 29.29069 | -13.31457 | 22098 ft | 463 kts | 50° |
| 2026-04-23 22:29 | 29.30904 | -13.28424 | 22217 ft | 463 kts | 50° |
| 2026-04-23 22:29 | 29.32705 | -13.25441 | 22458 ft | 460 kts | 50° |
| 2026-04-23 22:30 | 29.34523 | -13.22424 | 22617 ft | 460 kts | 50° |
| 2026-04-23 22:30 | 29.36340 | -13.19405 | 22746 ft | 460 kts | 50° |
| 2026-04-23 22:30 | 29.38159 | -13.16384 | 22877 ft | 460 kts | 50° |
| 2026-04-23 22:30 | 29.39978 | -13.13359 | 23009 ft | 461 kts | 50° |
| 2026-04-23 22:31 | 29.41796 | -13.10333 | 23143 ft | 461 kts | 50° |
| 2026-04-23 22:31 | 29.43615 | -13.07304 | 23277 ft | 461 kts | 50° |
| 2026-04-23 22:31 | 29.45436 | -13.04271 | 23408 ft | 462 kts | 50° |
| 2026-04-23 22:31 | 29.47258 | -13.01238 | 23584 ft | 462 kts | 49° |
| 2026-04-23 22:32 | 29.49084 | -12.98195 | 23703 ft | 462 kts | 49° |
| 2026-04-23 22:32 | 29.50908 | -12.95154 | 23821 ft | 463 kts | 49° |
| 2026-04-23 22:32 | 29.52734 | -12.92109 | 23932 ft | 463 kts | 49° |
| 2026-04-23 22:32 | 29.54558 | -12.89062 | 24049 ft | 463 kts | 49° |
| 2026-04-23 22:33 | 29.56383 | -12.86004 | 24154 ft | 464 kts | 49° |
| 2026-04-23 22:33 | 29.58206 | -12.82949 | 24266 ft | 464 kts | 49° |
| 2026-04-23 22:33 | 29.60032 | -12.79889 | 24382 ft | 464 kts | 49° |
| 2026-04-23 22:33 | 29.61858 | -12.76827 | 24498 ft | 465 kts | 50° |
| 2026-04-23 22:34 | 29.63684 | -12.73758 | 24610 ft | 465 kts | 50° |
| 2026-04-23 22:34 | 29.65508 | -12.70688 | 24725 ft | 465 kts | 50° |
| 2026-04-23 22:34 | 29.67335 | -12.67616 | 24838 ft | 465 kts | 50° |
| 2026-04-23 22:34 | 29.69138 | -12.64586 | 24955 ft | 465 kts | 50° |
| 2026-04-23 22:35 | 29.70963 | -12.61508 | 25058 ft | 466 kts | 50° |
| 2026-04-23 22:35 | 29.72785 | -12.58428 | 25187 ft | 466 kts | 50° |
| 2026-04-23 22:35 | 29.74609 | -12.55346 | 25304 ft | 466 kts | 50° |
| 2026-04-23 22:35 | 29.76434 | -12.52267 | 25422 ft | 466 kts | 50° |
| 2026-04-23 22:36 | 29.78262 | -12.49185 | 25542 ft | 466 kts | 50° |
| 2026-04-23 22:36 | 29.80088 | -12.46104 | 25658 ft | 466 kts | 50° |
| 2026-04-23 22:36 | 29.81914 | -12.43017 | 25813 ft | 466 kts | 50° |
| 2026-04-23 22:36 | 29.83736 | -12.39935 | 25934 ft | 466 kts | 50° |
| 2026-04-23 22:37 | 29.85561 | -12.36846 | 26055 ft | 466 kts | 50° |
| 2026-04-23 22:37 | 29.87383 | -12.33755 | 26176 ft | 466 kts | 50° |
| 2026-04-23 22:37 | 29.89207 | -12.30660 | 26303 ft | 466 kts | 50° |
| 2026-04-23 22:37 | 29.91026 | -12.27567 | 26415 ft | 466 kts | 50° |
| 2026-04-23 22:38 | 29.92844 | -12.24474 | 26554 ft | 466 kts | 50° |
| 2026-04-23 22:38 | 29.94662 | -12.21381 | 26663 ft | 466 kts | 50° |
| 2026-04-23 22:38 | 29.96459 | -12.18324 | 26776 ft | 466 kts | 50° |
| 2026-04-23 22:38 | 29.98278 | -12.15228 | 26916 ft | 466 kts | 50° |
| 2026-04-23 22:39 | 30.00101 | -12.12134 | 27030 ft | 465 kts | 48° |
| 2026-04-23 22:39 | 30.02120 | -12.09250 | 27158 ft | 458 kts | 40° |
| 2026-04-23 22:39 | 30.04371 | -12.06690 | 27287 ft | 454 kts | 37° |
| 2026-04-23 22:39 | 30.06646 | -12.04163 | 27402 ft | 454 kts | 37° |
| 2026-04-23 22:40 | 30.08917 | -12.01627 | 27533 ft | 454 kts | 37° |
| 2026-04-23 22:40 | 30.11182 | -11.99088 | 27662 ft | 454 kts | 37° |
| 2026-04-23 22:40 | 30.15704 | -11.94002 | 27919 ft | 453 kts | 37° |
| 2026-04-23 22:41 | 30.17964 | -11.91464 | 28048 ft | 453 kts | 37° |
| 2026-04-23 22:41 | 30.20224 | -11.88926 | 28176 ft | 453 kts | 37° |
| 2026-04-23 22:41 | 30.22484 | -11.86385 | 28308 ft | 453 kts | 37° |
| 2026-04-23 22:41 | 30.24742 | -11.83849 | 28439 ft | 453 kts | 37° |
| 2026-04-23 22:42 | 30.27001 | -11.81311 | 28571 ft | 452 kts | 37° |
| 2026-04-23 22:42 | 30.29258 | -11.78776 | 28703 ft | 452 kts | 37° |
| 2026-04-23 22:42 | 30.31513 | -11.76244 | 28835 ft | 452 kts | 37° |
| 2026-04-23 22:42 | 30.33764 | -11.73707 | 28967 ft | 451 kts | 37° |
| 2026-04-23 22:43 | 30.36012 | -11.71172 | 29100 ft | 451 kts | 37° |
| 2026-04-23 22:43 | 30.38228 | -11.68673 | 29229 ft | 450 kts | 37° |
| 2026-04-23 22:43 | 30.40473 | -11.66139 | 29367 ft | 450 kts | 37° |
| 2026-04-23 22:43 | 30.42709 | -11.63610 | 29503 ft | 449 kts | 37° |
| 2026-04-23 22:44 | 30.44944 | -11.61084 | 29667 ft | 449 kts | 36° |
| 2026-04-23 22:44 | 30.47178 | -11.58560 | 29803 ft | 448 kts | 36° |
| 2026-04-23 22:44 | 30.49408 | -11.56039 | 29937 ft | 447 kts | 36° |
| 2026-04-23 22:44 | 30.51630 | -11.53518 | 30079 ft | 447 kts | 36° |
| 2026-04-23 22:45 | 30.53850 | -11.50997 | 30208 ft | 446 kts | 36° |
| 2026-04-23 22:45 | 30.56060 | -11.48486 | 30327 ft | 445 kts | 36° |
| 2026-04-23 22:45 | 30.58272 | -11.45975 | 30442 ft | 444 kts | 36° |
| 2026-04-23 22:45 | 30.60478 | -11.43470 | 30563 ft | 443 kts | 36° |
| 2026-04-23 22:46 | 30.62683 | -11.40960 | 30684 ft | 443 kts | 36° |
| 2026-04-23 22:46 | 30.64878 | -11.38460 | 30804 ft | 442 kts | 36° |
| 2026-04-23 22:46 | 30.67071 | -11.35968 | 30923 ft | 441 kts | 36° |
| 2026-04-23 22:46 | 30.69258 | -11.33476 | 31044 ft | 440 kts | 36° |
| 2026-04-23 22:47 | 30.71440 | -11.30987 | 31162 ft | 439 kts | 36° |
| 2026-04-23 22:47 | 30.73616 | -11.28512 | 31281 ft | 437 kts | 36° |
| 2026-04-23 22:47 | 30.75788 | -11.26039 | 31451 ft | 436 kts | 36° |
| 2026-04-23 22:47 | 30.77949 | -11.23573 | 31569 ft | 435 kts | 36° |
| 2026-04-23 22:48 | 30.80107 | -11.21103 | 31698 ft | 434 kts | 36° |
| 2026-04-23 22:48 | 30.82254 | -11.18642 | 31817 ft | 433 kts | 36° |
| 2026-04-23 22:48 | 30.84397 | -11.16187 | 31939 ft | 431 kts | 36° |
| 2026-04-23 22:48 | 30.86530 | -11.13745 | 32065 ft | 430 kts | 36° |
| 2026-04-23 22:49 | 30.88659 | -11.11306 | 32184 ft | 428 kts | 36° |
| 2026-04-23 22:49 | 30.90778 | -11.08880 | 32316 ft | 427 kts | 35° |
| 2026-04-23 22:49 | 30.92890 | -11.06461 | 32443 ft | 425 kts | 36° |
| 2026-04-23 22:49 | 30.94989 | -11.04051 | 32563 ft | 423 kts | 36° |
| 2026-04-23 22:50 | 30.97085 | -11.01644 | 32694 ft | 422 kts | 36° |
| 2026-04-23 22:50 | 30.99141 | -10.99281 | 32815 ft | 420 kts | 35° |
| 2026-04-23 22:50 | 31.01215 | -10.96896 | 32944 ft | 418 kts | 35° |
| 2026-04-23 22:50 | 31.03280 | -10.94518 | 33075 ft | 416 kts | 35° |
| 2026-04-23 22:51 | 31.05337 | -10.92149 | 33205 ft | 414 kts | 36° |
| 2026-04-23 22:51 | 31.07379 | -10.89792 | 33393 ft | 412 kts | 35° |
| 2026-04-23 22:51 | 31.09413 | -10.87444 | 33523 ft | 410 kts | 35° |
| 2026-04-23 22:51 | 31.11432 | -10.85115 | 33655 ft | 407 kts | 35° |
| 2026-04-23 22:52 | 31.13441 | -10.82795 | 33779 ft | 405 kts | 35° |
| 2026-04-23 22:52 | 31.15434 | -10.80491 | 33914 ft | 402 kts | 35° |
| 2026-04-23 22:52 | 31.17408 | -10.78207 | 34071 ft | 398 kts | 34° |
| 2026-04-23 22:53 | 31.21348 | -10.73656 | 34115 ft | 398 kts | 34° |
| 2026-04-23 22:53 | 31.25306 | -10.69110 | 34119 ft | 401 kts | 36° |
| 2026-04-23 22:54 | 31.29221 | -10.64441 | 34135 ft | 402 kts | 36° |
| 2026-04-23 22:54 | 31.33163 | -10.59849 | 34109 ft | 404 kts | 34° |
| 2026-04-23 22:55 | 31.37195 | -10.55229 | 33870 ft | 414 kts | 34° |
| 2026-04-23 22:55 | 31.39288 | -10.52839 | 33585 ft | 423 kts | 35° |
| 2026-04-23 22:55 | 31.41388 | -10.50415 | 33565 ft | 425 kts | 35° |
| 2026-04-23 22:56 | 31.45600 | -10.45499 | 33566 ft | 429 kts | 36° |
| 2026-04-23 22:56 | 31.47703 | -10.43030 | 33688 ft | 426 kts | 36° |
| 2026-04-23 22:56 | 31.49792 | -10.40573 | 33789 ft | 425 kts | 36° |
| 2026-04-23 22:57 | 31.53981 | -10.35671 | 33847 ft | 426 kts | 35° |
| 2026-04-23 22:57 | 31.56104 | -10.33198 | 33074 ft | 438 kts | 36° |
| 2026-04-23 22:57 | 31.58323 | -10.30625 | 32405 ft | 457 kts | 36° |
| 2026-04-23 22:57 | 31.60602 | -10.27971 | 32169 ft | 465 kts | 37° |
| 2026-04-23 22:58 | 31.62871 | -10.25309 | 32085 ft | 469 kts | 37° |
| 2026-04-23 22:58 | 31.67481 | -10.19870 | 32147 ft | 472 kts | 37° |
| 2026-04-23 22:59 | 31.72133 | -10.14392 | 32111 ft | 475 kts | 37° |
| 2026-04-23 22:59 | 31.76811 | -10.08882 | 32114 ft | 477 kts | 38° |
| 2026-04-23 23:00 | 31.81510 | -10.03340 | 32110 ft | 479 kts | 38° |
| 2026-04-23 23:00 | 31.86221 | -9.97773 | 32099 ft | 481 kts | 38° |
| 2026-04-23 23:01 | 31.90918 | -9.92223 | 32109 ft | 483 kts | 38° |
| 2026-04-23 23:01 | 31.95655 | -9.86598 | 32115 ft | 484 kts | 38° |
| 2026-04-23 23:02 | 31.99636 | -9.81865 | 32096 ft | 486 kts | 39° |
| 2026-04-23 23:02 | 32.05172 | -9.75288 | 32106 ft | 487 kts | 39° |
| 2026-04-23 23:03 | 32.09134 | -9.70577 | 32106 ft | 487 kts | 39° |
| 2026-04-23 23:03 | 32.13905 | -9.64890 | 32101 ft | 488 kts | 39° |
| 2026-04-23 23:04 | 32.18676 | -9.59194 | 32106 ft | 488 kts | 39° |
| 2026-04-23 23:04 | 32.23446 | -9.53492 | 32098 ft | 488 kts | 39° |
| 2026-04-23 23:05 | 32.28223 | -9.47772 | 32094 ft | 490 kts | 40° |
| 2026-04-23 23:05 | 32.33000 | -9.42042 | 32101 ft | 489 kts | 40° |
| 2026-04-23 23:06 | 32.37771 | -9.36297 | 32098 ft | 489 kts | 40° |
| 2026-04-23 23:06 | 32.42539 | -9.30549 | 32100 ft | 489 kts | 40° |
| 2026-04-23 23:07 | 32.47316 | -9.24798 | 32099 ft | 489 kts | 40° |
| 2026-04-23 23:07 | 32.52086 | -9.19046 | 32095 ft | 490 kts | 40° |
| 2026-04-23 23:08 | 32.56827 | -9.13319 | 32120 ft | 491 kts | 41° |
| 2026-04-23 23:08 | 32.61604 | -9.07534 | 32100 ft | 491 kts | 42° |
| 2026-04-23 23:09 | 32.66377 | -9.01740 | 32099 ft | 491 kts | 42° |
| 2026-04-23 23:09 | 32.71149 | -8.95943 | 32091 ft | 491 kts | 42° |
| 2026-04-23 23:10 | 32.75919 | -8.90142 | 32098 ft | 491 kts | 42° |
| 2026-04-23 23:10 | 32.80680 | -8.84333 | 32098 ft | 491 kts | 42° |
| 2026-04-23 23:11 | 32.85439 | -8.78513 | 32125 ft | 491 kts | 43° |
| 2026-04-23 23:11 | 32.90199 | -8.72692 | 32101 ft | 490 kts | 43° |
| 2026-04-23 23:12 | 32.94949 | -8.66879 | 32095 ft | 490 kts | 44° |
| 2026-04-23 23:12 | 32.99699 | -8.61055 | 32094 ft | 490 kts | 44° |
| 2026-04-23 23:13 | 33.04439 | -8.55225 | 32097 ft | 490 kts | 44° |
| 2026-04-23 23:13 | 33.09140 | -8.49427 | 32098 ft | 489 kts | 44° |
| 2026-04-23 23:14 | 33.13864 | -8.43605 | 32257 ft | 486 kts | 44° |
| 2026-04-23 23:14 | 33.16206 | -8.40714 | 32383 ft | 483 kts | 44° |
| 2026-04-23 23:14 | 33.18573 | -8.37876 | 32509 ft | 480 kts | 39° |
| 2026-04-23 23:14 | 33.21173 | -8.35407 | 32643 ft | 475 kts | 31° |
| 2026-04-23 23:15 | 33.23949 | -8.33294 | 32752 ft | 471 kts | 29° |
| 2026-04-23 23:15 | 33.26720 | -8.31221 | 32878 ft | 469 kts | 29° |
| 2026-04-23 23:15 | 33.29480 | -8.29150 | 33007 ft | 468 kts | 29° |
| 2026-04-23 23:15 | 33.32228 | -8.27083 | 33140 ft | 466 kts | 29° |
| 2026-04-23 23:16 | 33.34967 | -8.25019 | 33268 ft | 464 kts | 29° |
| 2026-04-23 23:16 | 33.37693 | -8.22963 | 33394 ft | 463 kts | 29° |
| 2026-04-23 23:16 | 33.40411 | -8.20910 | 33532 ft | 461 kts | 29° |
| 2026-04-23 23:16 | 33.43116 | -8.18859 | 33700 ft | 459 kts | 30° |
| 2026-04-23 23:17 | 33.45811 | -8.16816 | 33838 ft | 457 kts | 30° |
| 2026-04-23 23:17 | 33.48492 | -8.14784 | 33989 ft | 455 kts | 30° |
| 2026-04-23 23:17 | 33.51130 | -8.12782 | 34089 ft | 455 kts | 30° |
| 2026-04-23 23:18 | 33.56531 | -8.08693 | 34098 ft | 458 kts | 30° |
| 2026-04-23 23:18 | 33.61898 | -8.04626 | 34099 ft | 461 kts | 30° |
| 2026-04-23 23:19 | 33.67340 | -8.00491 | 34100 ft | 464 kts | 30° |
| 2026-04-23 23:19 | 33.72812 | -7.96328 | 34096 ft | 467 kts | 30° |
| 2026-04-23 23:20 | 33.78309 | -7.92133 | 34104 ft | 469 kts | 31° |
| 2026-04-23 23:20 | 33.83837 | -7.87906 | 34095 ft | 472 kts | 31° |
| 2026-04-23 23:21 | 33.89388 | -7.83658 | 34095 ft | 474 kts | 31° |
| 2026-04-23 23:21 | 33.94958 | -7.79388 | 34095 ft | 475 kts | 31° |
| 2026-04-23 23:22 | 34.00549 | -7.75093 | 34101 ft | 477 kts | 31° |
| 2026-04-23 23:22 | 34.06164 | -7.70786 | 34103 ft | 478 kts | 31° |
| 2026-04-23 23:23 | 34.11775 | -7.66470 | 34107 ft | 479 kts | 32° |
| 2026-04-23 23:23 | 34.17391 | -7.62132 | 34106 ft | 479 kts | 32° |
| 2026-04-23 23:24 | 34.23008 | -7.57791 | 34104 ft | 479 kts | 32° |
| 2026-04-23 23:24 | 34.28626 | -7.53448 | 34101 ft | 480 kts | 33° |
| 2026-04-23 23:25 | 34.34216 | -7.49111 | 34100 ft | 480 kts | 33° |
| 2026-04-23 23:25 | 34.39844 | -7.44737 | 34103 ft | 481 kts | 33° |
| 2026-04-23 23:26 | 34.45478 | -7.40362 | 34106 ft | 481 kts | 33° |
| 2026-04-23 23:26 | 34.51111 | -7.35977 | 34103 ft | 481 kts | 33° |
| 2026-04-23 23:27 | 34.56746 | -7.31584 | 34105 ft | 482 kts | 33° |
| 2026-04-23 23:27 | 34.62381 | -7.27183 | 34103 ft | 482 kts | 33° |
| 2026-04-23 23:28 | 34.68018 | -7.22776 | 34100 ft | 482 kts | 33° |
| 2026-04-23 23:28 | 34.73652 | -7.18359 | 34104 ft | 482 kts | 34° |
| 2026-04-23 23:29 | 34.79293 | -7.13920 | 34111 ft | 483 kts | 34° |
| 2026-04-23 23:29 | 34.84943 | -7.09472 | 34101 ft | 484 kts | 34° |
| 2026-04-23 23:30 | 34.90603 | -7.05020 | 34101 ft | 485 kts | 34° |
| 2026-04-23 23:30 | 34.96273 | -7.00555 | 34103 ft | 485 kts | 34° |
| 2026-04-23 23:31 | 35.01940 | -6.96083 | 34095 ft | 485 kts | 34° |
| 2026-04-23 23:31 | 35.07601 | -6.91595 | 34095 ft | 485 kts | 34° |
| 2026-04-23 23:32 | 35.13265 | -6.87093 | 34100 ft | 486 kts | 34° |
| 2026-04-23 23:32 | 35.18891 | -6.82614 | 34088 ft | 485 kts | 34° |
| 2026-04-23 23:33 | 35.24555 | -6.78115 | 34090 ft | 485 kts | 34° |
| 2026-04-23 23:33 | 35.30220 | -6.73604 | 34092 ft | 486 kts | 34° |
| 2026-04-23 23:34 | 35.35880 | -6.69086 | 34095 ft | 486 kts | 34° |
| 2026-04-23 23:34 | 35.41598 | -6.64657 | 34092 ft | 486 kts | 33° |
| 2026-04-23 23:35 | 35.47348 | -6.60283 | 34092 ft | 486 kts | 33° |
| 2026-04-23 23:35 | 35.53082 | -6.55885 | 34092 ft | 486 kts | 33° |
| 2026-04-23 23:36 | 35.58803 | -6.51458 | 34098 ft | 486 kts | 34° |
| 2026-04-23 23:36 | 35.64526 | -6.47016 | 34090 ft | 486 kts | 34° |
| 2026-04-23 23:37 | 35.70241 | -6.42580 | 34089 ft | 485 kts | 34° |
| 2026-04-23 23:37 | 35.75947 | -6.38144 | 34087 ft | 485 kts | 34° |
| 2026-04-23 23:38 | 35.81654 | -6.33708 | 34087 ft | 485 kts | 34° |
| 2026-04-23 23:38 | 35.87306 | -6.29171 | 34087 ft | 485 kts | 36° |
| 2026-04-23 23:39 | 35.92825 | -6.24397 | 34092 ft | 484 kts | 37° |
| 2026-04-23 23:39 | 35.98286 | -6.19619 | 34090 ft | 484 kts | 37° |
| 2026-04-23 23:40 | 36.03820 | -6.14854 | 34092 ft | 485 kts | 37° |
| 2026-04-23 23:40 | 36.09363 | -6.10111 | 34090 ft | 485 kts | 37° |
| 2026-04-23 23:41 | 36.14895 | -6.05361 | 34092 ft | 483 kts | 36° |
| 2026-04-23 23:41 | 36.20411 | -6.00600 | 34093 ft | 483 kts | 37° |
| 2026-04-23 23:41 | 36.23212 | -5.98405 | 34087 ft | 470 kts | 28° |
| 2026-04-23 23:42 | 36.26149 | -5.96734 | 33640 ft | 461 kts | 21° |
| 2026-04-23 23:42 | 36.29241 | -5.95499 | 32466 ft | 472 kts | 17° |
| 2026-04-23 23:42 | 36.32421 | -5.94328 | 31523 ft | 481 kts | 17° |
| 2026-04-23 23:42 | 36.35660 | -5.93130 | 30599 ft | 490 kts | 17° |
| 2026-04-23 23:43 | 36.38924 | -5.91911 | 29638 ft | 489 kts | 18° |
| 2026-04-23 23:43 | 36.42164 | -5.90693 | 28611 ft | 483 kts | 18° |
| 2026-04-23 23:43 | 36.45351 | -5.89490 | 27626 ft | 476 kts | 18° |
| 2026-04-23 23:43 | 36.48502 | -5.88293 | 26676 ft | 472 kts | 18° |
| 2026-04-23 23:44 | 36.51627 | -5.87104 | 25751 ft | 467 kts | 17° |
| 2026-04-23 23:44 | 36.54725 | -5.85926 | 24855 ft | 462 kts | 17° |
| 2026-04-23 23:44 | 36.57783 | -5.84765 | 23989 ft | 457 kts | 17° |
| 2026-04-23 23:44 | 36.60808 | -5.83615 | 23050 ft | 452 kts | 17° |
| 2026-04-23 23:45 | 36.63800 | -5.82474 | 22061 ft | 447 kts | 17° |
| 2026-04-23 23:45 | 36.66752 | -5.81346 | 21113 ft | 442 kts | 17° |
| 2026-04-23 23:45 | 36.69678 | -5.80229 | 20190 ft | 437 kts | 17° |
| 2026-04-23 23:45 | 36.72569 | -5.79126 | 19295 ft | 433 kts | 17° |
| 2026-04-23 23:46 | 36.75434 | -5.78036 | 18435 ft | 429 kts | 17° |
| 2026-04-23 23:46 | 36.78235 | -5.76971 | 17471 ft | 424 kts | 17° |
| 2026-04-23 23:46 | 36.81043 | -5.75900 | 16558 ft | 419 kts | 17° |
| 2026-04-23 23:46 | 36.83816 | -5.74840 | 15675 ft | 414 kts | 17° |
| 2026-04-23 23:47 | 36.86547 | -5.73797 | 14825 ft | 408 kts | 17° |
| 2026-04-23 23:47 | 36.89240 | -5.72768 | 13996 ft | 401 kts | 17° |
| 2026-04-23 23:47 | 36.91887 | -5.71754 | 13097 ft | 396 kts | 17° |
| 2026-04-23 23:47 | 36.94498 | -5.70752 | 12194 ft | 390 kts | 17° |
| 2026-04-23 23:48 | 36.97071 | -5.69765 | 11329 ft | 384 kts | 17° |
| 2026-04-23 23:48 | 36.99602 | -5.68789 | 10566 ft | 375 kts | 17° |
| 2026-04-23 23:48 | 37.02034 | -5.67850 | 10309 ft | 362 kts | 17° |
| 2026-04-23 23:48 | 37.04427 | -5.66927 | 10073 ft | 358 kts | 17° |
| 2026-04-23 23:49 | 37.08894 | -5.65211 | 9782 ft | 314 kts | 17° |
| 2026-04-23 23:49 | 37.10956 | -5.64423 | 9650 ft | 308 kts | 17° |
| 2026-04-23 23:49 | 37.12997 | -5.63639 | 9520 ft | 306 kts | 17° |
| 2026-04-23 23:50 | 37.15030 | -5.62853 | 9391 ft | 305 kts | 18° |
| 2026-04-23 23:50 | 37.17062 | -5.62120 | 9268 ft | 304 kts | 12° |
| 2026-04-23 23:50 | 37.19155 | -5.61767 | 9139 ft | 303 kts | 2° |
| 2026-04-23 23:50 | 37.21258 | -5.61628 | 9012 ft | 303 kts | 3° |
| 2026-04-23 23:51 | 37.22651 | -5.61533 | 8934 ft | 302 kts | 3° |
| 2026-04-23 23:51 | 37.24747 | -5.61389 | 8791 ft | 301 kts | 3° |
| 2026-04-23 23:51 | 37.26839 | -5.61249 | 8669 ft | 300 kts | 3° |
| 2026-04-23 23:51 | 37.28921 | -5.61109 | 8544 ft | 300 kts | 3° |
| 2026-04-23 23:52 | 37.31692 | -5.60917 | 8375 ft | 292 kts | 3° |
| 2026-04-23 23:52 | 37.33007 | -5.60822 | 8291 ft | 280 kts | 3° |
| 2026-04-23 23:52 | 37.34896 | -5.60688 | 8102 ft | 266 kts | 3° |
| 2026-04-23 23:52 | 37.36724 | -5.60566 | 7730 ft | 261 kts | 3° |
| 2026-04-23 23:53 | 37.38528 | -5.60449 | 7316 ft | 258 kts | 3° |
| 2026-04-23 23:53 | 37.40296 | -5.60578 | 6914 ft | 254 kts | 341° |
| 2026-04-23 23:53 | 37.41784 | -5.61679 | 6467 ft | 248 kts | 310° |
| 2026-04-23 23:53 | 37.42487 | -5.63540 | 6016 ft | 238 kts | 272° |
| 2026-04-23 23:54 | 37.42129 | -5.65494 | 5466 ft | 231 kts | 236° |
| 2026-04-23 23:54 | 37.40997 | -5.66884 | 4891 ft | 228 kts | 207° |
| 2026-04-23 23:54 | 37.39516 | -5.66949 | 4221 ft | 225 kts | 141° |
| 2026-04-23 23:54 | 37.39557 | -5.65185 | 2571 ft | 263 kts | 29° |
| 2026-04-23 23:55 | 37.41196 | -5.65383 | 2518 ft | 229 kts | 328° |
| 2026-04-23 23:55 | 37.41946 | -5.66938 | 2401 ft | 198 kts | 279° |
| 2026-04-23 23:55 | 37.41823 | -5.68500 | 2522 ft | 163 kts | 269° |
| 2026-04-23 23:55 | 37.41764 | -5.69927 | 2721 ft | 161 kts | 277° |
| 2026-04-23 23:56 | 37.42045 | -5.71274 | 2676 ft | 158 kts | 277° |
| 2026-04-23 23:56 | 37.42068 | -5.72590 | 2516 ft | 143 kts | 259° |
| 2026-04-23 23:56 | 37.41943 | -5.73818 | 2385 ft | 141 kts | 259° |
| 2026-04-23 23:56 | 37.41888 | -5.75062 | 2175 ft | 144 kts | 265° |
| 2026-04-23 23:57 | 37.41862 | -5.76320 | 1969 ft | 144 kts | 263° |
| 2026-04-23 23:57 | 37.41805 | -5.77595 | 1722 ft | 149 kts | 268° |
| 2026-04-23 23:57 | 37.41822 | -5.78893 | 1542 ft | 146 kts | 269° |
| 2026-04-23 23:57 | 37.41807 | -5.80172 | 1254 ft | 148 kts | 267° |
| 2026-04-23 23:58 | 37.41803 | -5.81443 | 1023 ft | 139 kts | 268° |
| 2026-04-23 23:58 | 37.41799 | -5.82627 | 798 ft | 134 kts | 267° |
| 2026-04-23 23:58 | 37.41796 | -5.83827 | 668 ft | 140 kts | 267° |
| 2026-04-23 23:58 | 37.41810 | -5.85062 | 536 ft | 143 kts | 267° |
| 2026-04-23 23:59 | 37.41800 | -5.86328 | 349 ft | 144 kts | 268° |
| 2026-04-23 23:59 | 37.41797 | -5.87553 | 143 ft | 136 kts | 268° |
| 2026-04-23 23:59 | 37.41794 | -5.88575 | 106 ft | 82 kts | 269° |
| 2026-04-23 23:59 | 37.41793 | -5.89029 | 102 ft | 37 kts | 270° |
| 2026-04-24 00:00 | 37.41851 | -5.89249 | 100 ft | 24 kts | 317° |
| 2026-04-24 00:00 | 37.41970 | -5.89352 | 101 ft | 19 kts | 326° |
| 2026-04-24 00:00 | 37.42069 | -5.89465 | 98 ft | 20 kts | 317° |
| 2026-04-24 00:00 | 37.42145 | -5.89567 | 96 ft | 15 kts | 311° |
| 2026-04-24 00:01 | 37.42219 | -5.89661 | 94 ft | 17 kts | 316° |
| 2026-04-24 00:01 | 37.42303 | -5.89726 | 94 ft | 12 kts | 10° |
| 2026-04-24 00:01 | 37.42341 | -5.89698 | 94 ft | 6 kts | 43° |
| 2026-04-24 00:01 | 37.42361 | -5.89666 | 94 ft | 5 kts | 51° |
| 2026-04-24 00:02 | 37.42384 | -5.89632 | 95 ft | 3 kts | 64° |
| 2026-04-24 00:02 | 37.42385 | -5.89614 | 97 ft | 2 kts | 90° |
| 2026-04-24 00:02 | 37.42384 | -5.89597 | 95 ft | 2 kts | 96° |
| 2026-04-24 00:02 | 37.42383 | -5.89588 | 95 ft | 1 kts | 97° |
| 2026-04-24 00:03 | 37.42383 | -5.89585 | 95 ft | 0 kts | 98° |